createdAt,value
2023-01-10T00:03:41.114Z,28.20
2023-01-10T00:08:46.188Z,22.85
2023-01-10T00:13:49.903Z,25.27
2023-01-10T00:18:53.701Z,14.57
2023-01-10T00:24:00.255Z,17.70
2023-01-10T00:29:04.048Z,30.52
2023-01-10T00:34:07.974Z,22.60
2023-01-10T00:39:14.034Z,25.92
2023-01-10T00:44:17.799Z,18.33
2023-01-10T00:49:21.778Z,21.50
2023-01-10T00:54:27.258Z,23.12
2023-01-10T00:59:31.317Z,20.37
2023-01-10T01:04:35.396Z,21.92
2023-01-10T01:10:00.481Z,24.95
2023-01-10T01:15:04.357Z,25.67
2023-01-10T01:20:09.994Z,27.33
2023-01-10T01:25:15.448Z,23.67
2023-01-10T01:30:19.377Z,18.87
2023-01-10T01:35:23.310Z,24.87
2023-01-10T01:40:28.472Z,27.48
2023-01-10T01:45:35.904Z,31.85
2023-01-10T01:50:47.894Z,30.17
2023-01-10T01:55:57.011Z,31.42
2023-01-10T02:01:01.202Z,22.33
2023-01-10T02:06:05.684Z,22.52
2023-01-10T02:11:11.793Z,26.65
2023-01-10T02:16:16.583Z,25.77
2023-01-10T02:21:42.994Z,22.30
2023-01-10T02:27:24.437Z,26.73
2023-01-10T02:32:45.735Z,23.60
2023-01-10T02:38:00.980Z,27.62
2023-01-10T02:43:09.876Z,24.25
2023-01-10T02:48:15.025Z,29.52
2023-01-10T02:53:24.366Z,46.67
2023-01-10T02:58:41.578Z,28.33
2023-01-10T03:03:51.151Z,24.40
2023-01-10T03:09:00.451Z,25.30
2023-01-10T03:14:05.232Z,31.50
2023-01-10T03:19:13.816Z,21.33
2023-01-10T03:24:20.315Z,29.35
2023-01-10T03:29:30.399Z,21.73
2023-01-10T03:34:36.499Z,35.00
2023-01-10T03:39:49.263Z,26.73
2023-01-10T03:45:01.038Z,28.77
2023-01-10T03:50:12.113Z,25.17
2023-01-10T03:55:21.161Z,26.30
2023-01-10T04:00:26.105Z,37.80
2023-01-10T04:05:31.262Z,23.40
2023-01-10T04:10:35.025Z,34.92
2023-01-10T04:15:38.781Z,33.40
2023-01-10T04:20:43.940Z,26.25
2023-01-10T04:25:48.308Z,30.75
2023-01-10T04:30:52.061Z,26.83
2023-01-10T04:35:57.205Z,31.92
2023-01-10T04:41:00.953Z,29.95
2023-01-10T04:46:04.973Z,32.70
2023-01-10T04:51:10.101Z,37.33
2023-01-10T04:56:18.278Z,32.08
2023-01-10T05:06:28.177Z,26.60
2023-01-10T05:11:31.924Z,34.70
2023-01-10T05:16:36.423Z,30.08
2023-01-10T05:21:41.588Z,47.65
2023-01-10T05:26:45.331Z,35.72
2023-01-10T05:31:51.881Z,35.53
2023-01-10T05:36:57.017Z,33.63
2023-01-10T05:42:00.820Z,42.60
2023-01-10T05:47:04.649Z,48.58
2023-01-10T05:52:09.739Z,37.00
2023-01-10T05:57:13.622Z,32.17
2023-01-10T06:02:17.554Z,38.15
2023-01-10T06:07:22.689Z,42.83
2023-01-10T06:12:26.651Z,52.28
2023-01-10T06:17:30.621Z,39.33
2023-01-10T06:22:35.700Z,40.10
2023-01-10T06:27:41.170Z,37.50
2023-01-10T06:32:44.953Z,37.08
2023-01-10T06:37:50.051Z,29.27
2023-01-10T06:42:53.791Z,39.17
2023-01-10T06:47:57.675Z,31.42
2023-01-10T06:53:04.591Z,41.67
2023-01-10T06:58:08.487Z,51.60
2023-01-10T07:03:12.275Z,32.45
2023-01-10T07:08:17.728Z,37.10
2023-01-10T07:13:21.472Z,33.17
2023-01-10T07:18:25.259Z,35.60
2023-01-10T07:23:31.203Z,39.95
2023-01-10T07:28:35.357Z,39.65
2023-01-10T07:33:39.086Z,31.85
2023-01-10T07:38:44.210Z,35.70
2023-01-10T07:43:48.792Z,34.85
2023-01-10T07:48:52.629Z,36.25
2023-01-10T07:53:57.759Z,27.98
2023-01-10T07:59:02.213Z,31.00
2023-01-10T08:04:06.460Z,41.47
2023-01-10T08:09:11.606Z,34.83
2023-01-10T08:14:15.550Z,28.70
2023-01-10T08:19:19.301Z,39.53
2023-01-10T08:24:24.507Z,32.72
2023-01-10T08:29:28.538Z,33.30
2023-01-10T08:34:32.286Z,40.05
2023-01-10T08:39:39.250Z,32.80
2023-01-10T08:44:42.971Z,44.25
2023-01-10T08:49:47.181Z,33.03
2023-01-10T08:54:52.475Z,27.48
2023-01-10T08:59:56.309Z,34.72
2023-01-10T09:05:00.164Z,36.40
2023-01-10T09:10:06.042Z,30.35
2023-01-10T09:15:10.632Z,30.95
2023-01-10T09:20:14.389Z,35.13
2023-01-10T09:25:19.944Z,39.03
2023-01-10T09:30:23.980Z,27.25
2023-01-10T09:35:29.005Z,30.15
2023-01-10T09:40:52.275Z,33.35
2023-01-10T09:46:04.210Z,31.77
2023-01-10T09:51:23.795Z,27.40
2023-01-10T09:56:30.124Z,32.92
2023-01-10T10:01:37.158Z,28.02
2023-01-10T10:06:40.977Z,32.13
2023-01-10T10:12:03.445Z,28.90
2023-01-10T10:17:30.802Z,25.02
2023-01-10T10:22:47.818Z,35.87
2023-01-10T10:28:10.570Z,28.92
2023-01-10T10:33:36.889Z,27.02
2023-01-10T10:38:44.261Z,39.28
2023-01-10T10:43:50.137Z,23.50
2023-01-10T10:48:58.730Z,24.73
2023-01-10T10:54:02.859Z,28.25
2023-01-10T10:59:08.235Z,29.85
2023-01-10T11:04:15.185Z,34.28
2023-01-10T11:09:23.847Z,27.30
2023-01-10T11:14:47.127Z,29.30
2023-01-10T11:19:59.223Z,24.70
2023-01-10T11:25:04.276Z,26.10
2023-01-10T11:30:18.272Z,31.87
2023-01-10T11:35:26.804Z,30.90
2023-01-10T11:40:31.620Z,34.65
2023-01-10T11:45:38.128Z,30.12
2023-01-10T11:50:50.273Z,23.40
2023-01-10T11:55:54.134Z,27.23
2023-01-10T12:00:59.619Z,23.05
2023-01-10T12:06:05.548Z,29.60
2023-01-10T12:11:27.260Z,32.22
2023-01-10T12:16:35.450Z,34.47
2023-01-10T12:21:42.333Z,31.08
2023-01-10T12:26:47.585Z,25.75
2023-01-10T12:31:55.061Z,37.65
2023-01-10T12:37:07.545Z,24.27
2023-01-10T12:42:36.559Z,30.35
2023-01-10T12:48:00.257Z,37.00
2023-01-10T12:53:09.047Z,23.95
2023-01-10T12:58:21.785Z,25.65
2023-01-10T13:03:33.115Z,31.10
2023-01-10T13:08:42.518Z,27.62
2023-01-10T13:13:53.746Z,32.33
2023-01-10T13:19:06.388Z,21.92
2023-01-10T13:24:22.281Z,26.27
2023-01-10T13:29:28.968Z,31.37
2023-01-10T13:34:36.818Z,36.92
2023-01-10T13:39:45.666Z,28.17
2023-01-10T13:45:18.038Z,27.62
2023-01-10T13:51:05.063Z,33.78
2023-01-10T13:56:33.874Z,26.92
2023-01-10T14:02:09.062Z,33.72
2023-01-10T14:07:23.944Z,30.27
2023-01-10T14:12:34.085Z,30.27
2023-01-10T14:17:38.894Z,39.10
2023-01-10T14:22:58.626Z,27.30
2023-01-10T14:28:03.244Z,29.80
2023-01-10T14:33:14.314Z,37.10
2023-01-10T14:38:23.979Z,28.92
2023-01-10T14:43:34.128Z,29.20
2023-01-10T14:48:42.590Z,23.55
2023-01-10T14:53:48.297Z,31.33
2023-01-10T14:58:52.075Z,27.33
2023-01-10T15:03:57.008Z,32.03
2023-01-10T15:09:03.712Z,29.85
2023-01-10T15:14:10.852Z,27.37
2023-01-10T15:19:18.879Z,23.00
2023-01-10T15:24:42.820Z,19.02
2023-01-10T15:29:47.109Z,23.45
2023-01-10T15:34:52.930Z,22.25
2023-01-10T15:39:58.617Z,23.27
2023-01-10T15:45:18.811Z,23.17
2023-01-10T15:50:27.047Z,20.40
2023-01-10T16:00:46.671Z,14.35
2023-01-10T16:05:54.720Z,12.88
2023-01-10T16:11:02.226Z,5.28
2023-01-10T16:16:16.475Z,11.17
2023-01-10T16:21:21.901Z,7.18
2023-01-10T16:26:27.042Z,12.98
2023-01-10T16:31:30.843Z,9.48
2023-01-10T16:36:34.643Z,6.97
2023-01-10T16:41:57.324Z,7.93
2023-01-10T16:47:01.975Z,9.63
2023-01-10T16:52:06.899Z,8.93
2023-01-10T16:57:13.023Z,5.20
2023-01-10T17:02:19.629Z,5.03
2023-01-10T17:07:23.424Z,5.57
2023-01-10T17:12:32.959Z,3.80
2023-01-10T17:17:36.721Z,5.37
2023-01-10T17:22:40.601Z,3.65
2023-01-10T17:27:45.982Z,5.18
2023-01-10T17:32:49.772Z,3.53
2023-01-10T17:37:53.593Z,2.83
2023-01-10T17:42:58.683Z,7.30
2023-01-10T17:48:02.635Z,3.15
2023-01-10T17:53:06.748Z,4.15
2023-01-10T17:58:11.970Z,3.40
2023-01-10T18:03:15.892Z,3.20
2023-01-10T18:08:19.892Z,5.22
2023-01-10T18:13:25.009Z,3.08
2023-01-10T18:18:29.360Z,3.55
2023-01-10T18:23:33.831Z,4.40
2023-01-10T18:28:42.399Z,5.10
2023-01-10T18:33:47.339Z,5.47
2023-01-10T18:38:52.573Z,2.60
2023-01-10T18:43:57.726Z,5.55
2023-01-10T18:49:01.493Z,5.50
2023-01-10T18:54:06.936Z,2.42
2023-01-10T18:59:12.085Z,4.85
2023-01-10T19:04:15.982Z,6.18
2023-01-10T19:09:20.111Z,3.50
2023-01-10T19:14:25.322Z,3.72
2023-01-10T19:19:29.297Z,5.30
2023-01-10T19:24:37.670Z,4.12
2023-01-10T19:29:46.164Z,5.68
2023-01-10T19:34:50.170Z,5.78
2023-01-10T19:39:53.991Z,10.35
2023-01-10T19:44:59.268Z,4.78
2023-01-10T19:50:03.425Z,5.15
2023-01-10T19:55:08.061Z,5.47
2023-01-10T20:00:14.434Z,7.50
2023-01-10T20:05:18.265Z,8.27
2023-01-10T20:10:22.118Z,5.87
2023-01-10T20:15:28.234Z,8.48
2023-01-10T20:20:32.407Z,7.25
2023-01-10T20:25:36.362Z,7.45
2023-01-10T20:30:41.838Z,8.55
2023-01-10T20:35:45.542Z,8.18
2023-01-10T20:40:49.342Z,13.18
2023-01-10T20:45:55.048Z,7.72
2023-01-10T20:50:58.933Z,7.00
2023-01-10T20:56:03.976Z,15.70
2023-01-10T21:01:10.600Z,7.82
2023-01-10T21:06:15.468Z,7.82
2023-01-10T21:11:20.981Z,8.57
2023-01-10T21:16:26.556Z,10.38
2023-01-10T21:21:30.377Z,7.35
2023-01-10T21:26:34.134Z,10.02
2023-01-10T21:31:39.287Z,10.52
2023-01-10T21:36:43.157Z,8.77
2023-01-10T21:42:04.493Z,8.15
2023-01-10T21:47:09.680Z,12.50
2023-01-10T21:52:13.553Z,9.23
2023-01-10T21:57:21.812Z,14.87
2023-01-10T22:02:29.710Z,14.30
2023-01-10T22:07:33.588Z,10.50
2023-01-10T22:12:37.661Z,11.88
2023-01-10T22:17:42.795Z,14.85
2023-01-10T22:22:46.563Z,10.57
2023-01-10T22:27:50.325Z,7.97
2023-01-10T22:32:57.853Z,8.95
2023-01-10T22:38:01.590Z,10.37
2023-01-10T22:43:05.352Z,8.55
2023-01-10T22:48:11.093Z,10.57
2023-01-10T22:53:15.009Z,10.18
2023-01-10T22:58:18.757Z,24.02
2023-01-10T23:03:24.534Z,11.82
2023-01-10T23:08:28.456Z,14.82
2023-01-10T23:13:32.274Z,10.88
2023-01-10T23:18:37.370Z,9.05
2023-01-10T23:23:41.144Z,12.23
2023-01-10T23:28:47.276Z,7.07
2023-01-10T23:33:52.491Z,11.85
2023-01-10T23:38:56.265Z,10.20
2023-01-10T23:44:00.003Z,11.50
2023-01-10T23:49:05.159Z,15.95
2023-01-10T23:54:09.032Z,12.20
2023-01-10T23:59:12.752Z,10.25
